createdAt,value
2023-05-21T00:05:02.353Z,14.31
2023-05-21T00:10:02.313Z,14.26
2023-05-21T00:15:02.411Z,14.21
2023-05-21T00:19:52.472Z,14.15
2023-05-21T00:24:48.845Z,14.14
2023-05-21T00:29:48.628Z,14.1
2023-05-21T00:34:47.817Z,14.05
2023-05-21T00:39:47.610Z,13.99
2023-05-21T00:44:45.822Z,13.99
2023-05-21T00:49:45.797Z,14
2023-05-21T00:54:45.287Z,14
2023-05-21T00:59:12.485Z,13.97
2023-05-21T01:04:08.907Z,14.01
2023-05-21T01:09:08.955Z,14.01
2023-05-21T01:14:08.298Z,14
2023-05-21T01:19:08.135Z,14.01
2023-05-21T01:24:05.686Z,14
2023-05-21T01:29:05.456Z,13.96
2023-05-21T01:34:04.592Z,13.98
2023-05-21T01:39:04.231Z,13.98
2023-05-21T01:44:03.574Z,13.98
2023-05-21T01:49:03.332Z,13.99
2023-05-21T01:54:03.500Z,13.99
2023-05-21T01:58:50.129Z,13.97
2023-05-21T02:03:51.178Z,13.94
2023-05-21T02:08:47.752Z,13.9
2023-05-21T02:13:47.584Z,13.85
2023-05-21T02:18:46.856Z,13.79
2023-05-21T02:23:45.416Z,13.73
2023-05-21T02:28:45.236Z,13.67
2023-05-21T02:33:44.891Z,13.6
2023-05-21T02:38:44.505Z,13.51
2023-05-21T02:43:45.516Z,13.42
2023-05-21T02:48:41.702Z,13.34
2023-05-21T02:53:41.615Z,13.25
2023-05-21T02:58:40.959Z,13.12
2023-05-21T03:03:40.783Z,13
2023-05-21T03:08:38.266Z,12.9
2023-05-21T03:13:38.096Z,12.77
2023-05-21T03:18:37.459Z,12.66
2023-05-21T03:23:36.803Z,12.55
2023-05-21T03:28:36.333Z,12.43
2023-05-21T03:33:35.571Z,12.35
2023-05-21T03:38:37.127Z,12.26
2023-05-21T03:43:34.947Z,12.16
2023-05-21T03:48:36.150Z,12.07
2023-05-21T03:53:32.416Z,11.98
2023-05-21T03:58:32.319Z,11.91
2023-05-21T04:00:18.387Z,11.89
2023-05-21T04:59:08.460Z,11.99
2023-05-21T05:04:05.553Z,12.17
2023-05-21T05:09:04.861Z,12.32
2023-05-21T05:14:05.021Z,12.55
2023-05-21T05:19:03.324Z,12.78
2023-05-21T05:24:03.670Z,13.06
2023-05-21T05:29:03.829Z,13.35
2023-05-21T05:34:02.767Z,13.61
2023-05-21T05:39:02.820Z,13.87
2023-05-21T05:44:03.004Z,14.11
2023-05-21T05:48:51.093Z,14.27
2023-05-21T05:53:50.686Z,14.49
2023-05-21T05:58:49.810Z,14.77
2023-05-21T06:03:49.654Z,15.04
2023-05-21T06:08:49.054Z,15.33
2023-05-21T06:13:48.764Z,15.53
2023-05-21T06:18:48.958Z,15.75
2023-05-21T06:23:48.460Z,15.86
2023-05-21T06:28:49.619Z,15.97
2023-05-21T06:33:46.220Z,16.11
2023-05-21T06:38:46.055Z,16.29
2023-05-21T06:43:45.496Z,16.33
2023-05-21T06:48:45.501Z,16.42
2023-05-21T06:53:43.090Z,16.48
2023-05-21T06:58:42.874Z,16.58
2023-05-21T07:03:43.167Z,16.73
2023-05-21T07:08:42.901Z,16.95
2023-05-21T07:13:42.296Z,17.07
2023-05-21T07:18:42.694Z,17.23
2023-05-21T07:23:42.093Z,17.41
2023-05-21T07:28:41.900Z,17.58
2023-05-21T07:33:39.640Z,17.76
2023-05-21T07:38:39.566Z,17.95
2023-05-21T07:43:38.812Z,18.12
2023-05-21T07:48:38.677Z,18.31
2023-05-21T07:53:38.441Z,18.6
2023-05-21T07:58:38.033Z,18.98
2023-05-21T08:05:02.607Z,19.04
2023-05-21T08:10:00.576Z,18.87
2023-05-21T08:20:05.961Z,18.68
2023-05-21T08:25:06.445Z,18.95
2023-05-21T08:30:04.442Z,19.54
2023-05-21T08:35:04.310Z,20.23
2023-05-21T08:40:04.444Z,20.57
2023-05-21T08:45:03.425Z,20.8
2023-05-21T08:50:03.971Z,21.14
2023-05-21T08:55:04.795Z,21.47
2023-05-21T08:59:13.655Z,21.68
2023-05-21T09:09:12.915Z,22.12
2023-05-21T09:14:12.639Z,22.24
2023-05-21T09:19:12.033Z,22.02
2023-05-21T09:24:11.510Z,21.87
2023-05-21T09:29:11.485Z,21.89
2023-05-21T09:34:10.979Z,21.72
2023-05-21T09:39:09.305Z,21.8
2023-05-21T09:44:09.052Z,21.8
2023-05-21T09:49:08.168Z,21.93
2023-05-21T09:54:07.854Z,22.18
2023-05-21T09:59:04.814Z,22.42
2023-05-21T10:04:05.185Z,22.69
2023-05-21T10:09:05.878Z,23.11
2023-05-21T10:14:06.719Z,23.77
2023-05-21T10:19:04.307Z,24.39
2023-05-21T10:24:04.183Z,25.02
2023-05-21T10:29:03.719Z,25.03
2023-05-21T10:34:04.048Z,24.65
2023-05-21T10:39:03.805Z,24.62
2023-05-21T10:44:05.174Z,24.81
2023-05-21T10:49:02.375Z,24.86
2023-05-21T10:54:02.112Z,24.54
2023-05-21T10:59:03.390Z,24.42
2023-05-21T11:03:49.947Z,24.22
2023-05-21T11:08:49.675Z,24.1
2023-05-21T11:13:48.982Z,23.58
2023-05-21T11:18:48.859Z,23.51
2023-05-21T11:23:46.160Z,23.64
2023-05-21T11:28:45.817Z,23.74
2023-05-21T11:33:45.047Z,23.44
2023-05-21T11:38:44.647Z,23.48
2023-05-21T11:43:43.898Z,23.47
2023-05-21T11:48:43.280Z,23.63
2023-05-21T11:53:44.267Z,23.65
2023-05-21T11:58:42.831Z,23.94
2023-05-21T12:03:44.081Z,24.17
2023-05-21T12:08:41.001Z,24.13
2023-05-21T12:13:41.209Z,24.02
2023-05-21T12:18:40.874Z,24.22
2023-05-21T12:23:40.190Z,24.33
2023-05-21T12:28:39.813Z,24.31
2023-05-21T12:33:39.871Z,24.11
2023-05-21T12:38:39.243Z,24.04
2023-05-21T12:43:39.985Z,24.04
2023-05-21T12:48:36.363Z,24
2023-05-21T12:53:36.139Z,23.94
2023-05-21T12:58:35.616Z,23.91
2023-05-21T13:03:35.370Z,23.84
2023-05-21T13:08:32.732Z,23.76
2023-05-21T13:13:32.331Z,23.76
2023-05-21T13:18:31.717Z,23.82
2023-05-21T13:23:31.674Z,23.86
2023-05-21T13:28:31.124Z,24
2023-05-21T13:33:30.847Z,24.05
2023-05-21T13:38:30.835Z,24.16
2023-05-21T13:43:30.253Z,24.17
2023-05-21T13:48:28.263Z,24.08
2023-05-21T13:53:27.944Z,24.07
2023-05-21T13:58:28.313Z,24.15
2023-05-21T14:00:17.277Z,24.15
2023-05-21T14:58:51.271Z,25.09
2023-05-21T15:03:51.486Z,25.39
2023-05-21T15:08:50.547Z,25.6
2023-05-21T15:13:50.131Z,25.63
2023-05-21T15:18:50.383Z,25.69
2023-05-21T15:23:50.883Z,25.85
2023-05-21T15:28:47.980Z,26.01
2023-05-21T15:33:47.719Z,26
2023-05-21T15:38:47.978Z,26
2023-05-21T15:43:47.600Z,25.98
2023-05-21T15:48:46.712Z,25.73
2023-05-21T15:53:46.352Z,25.57
2023-05-21T15:58:46.317Z,25.48
2023-05-21T16:03:45.901Z,25.49
2023-05-21T16:08:46.928Z,25.47
2023-05-21T16:13:43.336Z,25.51
2023-05-21T16:18:42.837Z,25.48
2023-05-21T16:23:42.166Z,25.37
2023-05-21T16:28:42.250Z,25.22
2023-05-21T16:33:39.812Z,25.16
2023-05-21T16:38:39.666Z,25.13
2023-05-21T16:43:38.677Z,25.09
2023-05-21T16:48:38.241Z,25.02
2023-05-21T16:53:37.460Z,24.96
2023-05-21T16:58:37.050Z,24.77
2023-05-21T17:00:23.233Z,24.73
2023-05-21T17:05:09.345Z,24.65
2023-05-21T17:10:06.250Z,24.6
2023-05-21T17:15:05.625Z,24.58
2023-05-21T17:20:05.793Z,24.52
2023-05-21T17:30:02.876Z,24.59
2023-05-21T17:35:04.084Z,24.64
2023-05-21T17:44:51.231Z,24.56
2023-05-21T17:49:50.916Z,24.5
2023-05-21T17:54:51.919Z,24.42
2023-05-21T17:59:06.995Z,24.33
2023-05-21T18:04:06.474Z,24.21
2023-05-21T18:09:06.539Z,24
2023-05-21T18:14:04.453Z,23.88
2023-05-21T18:19:05.094Z,23.71
2023-05-21T18:24:04.880Z,23.43
2023-05-21T18:29:03.694Z,23.25
2023-05-21T18:34:03.780Z,23.08
2023-05-21T18:39:04.408Z,22.84
2023-05-21T18:44:02.633Z,22.53
2023-05-21T18:48:51.615Z,22.21
2023-05-21T18:53:50.654Z,21.89
2023-05-21T18:58:50.457Z,21.49
2023-05-21T19:03:47.716Z,21.17
2023-05-21T19:08:47.318Z,20.89
2023-05-21T19:13:47.611Z,20.62
2023-05-21T19:18:47.088Z,20.29
2023-05-21T19:23:52.993Z,20.04
2023-05-21T19:28:45.544Z,19.82
2023-05-21T19:33:45.439Z,19.56
2023-05-21T19:38:44.813Z,19.35
2023-05-21T19:43:45.695Z,19.14
2023-05-21T19:48:42.133Z,18.94
2023-05-21T19:53:42.051Z,18.73
2023-05-21T19:58:41.357Z,18.54
2023-05-21T20:03:41.086Z,18.39
2023-05-21T20:08:38.971Z,18.2
2023-05-21T20:13:38.678Z,18.08
2023-05-21T20:18:38.574Z,17.94
2023-05-21T20:23:39.324Z,17.79
2023-05-21T20:28:35.809Z,17.68
2023-05-21T20:33:35.524Z,17.54
2023-05-21T20:38:34.610Z,17.44
2023-05-21T20:43:34.384Z,17.31
2023-05-21T20:48:31.710Z,17.19
2023-05-21T20:53:31.375Z,17.09
2023-05-21T20:58:31.536Z,17
2023-05-21T21:05:01.879Z,16.87
2023-05-21T21:10:02.470Z,16.78
2023-05-21T21:15:02.321Z,16.71
2023-05-21T21:19:50.813Z,16.64
2023-05-21T21:24:50.308Z,16.54
2023-05-21T21:29:50.350Z,16.45
2023-05-21T21:34:49.859Z,16.37
2023-05-21T21:39:50.853Z,16.29
2023-05-21T21:44:47.317Z,16.18
2023-05-21T21:49:47.291Z,16.11
2023-05-21T21:54:47.303Z,16.04
2023-05-21T21:59:13.849Z,16.02
2023-05-21T22:04:13.546Z,15.99
2023-05-21T22:09:13.555Z,15.93
2023-05-21T22:14:13.131Z,15.87
2023-05-21T22:19:14.172Z,15.79
2023-05-21T22:24:17.791Z,15.69
2023-05-21T22:29:10.665Z,15.57
2023-05-21T22:34:09.968Z,15.54
2023-05-21T22:39:10.020Z,15.45
2023-05-21T22:44:06.991Z,15.37
2023-05-21T22:49:06.839Z,15.28
2023-05-21T22:54:07.184Z,15.2
2023-05-21T22:59:04.235Z,15.1
2023-05-21T23:04:02.224Z,15.06
2023-05-21T23:08:51.213Z,14.98
2023-05-21T23:13:50.507Z,14.92
2023-05-21T23:18:50.287Z,14.89
2023-05-21T23:23:47.781Z,14.87
2023-05-21T23:28:47.480Z,14.92
2023-05-21T23:33:47.274Z,15.03
2023-05-21T23:38:48.416Z,15.12
2023-05-21T23:43:45.024Z,15.19
2023-05-21T23:48:44.739Z,15.21
2023-05-21T23:53:44.257Z,15.28
2023-05-21T23:58:43.954Z,15.38
